Time;durP1;ratioP1;P1;durP2;ratioP2;P2;SDS_P1;SDS_P2;PMS_P1;PMS_P2;Temp;Humidity;BMP_temperature;BMP_pressure;BME280_temperature;BME280_humidity;BME280_pressure;Samples;Min_cycle;Max_cycle;Signal;HPM_P1;HPM_P2
2021/03/17 06:00:37;;;;;;;0.00;0.00;;;;;;;;;;5071318;28;20361;-61
2021/03/17 06:03:04;;;;;;;0.00;0.00;;;;;;;;;;5070051;28;20123;-61
2021/03/17 06:05:30;;;;;;;0.00;0.00;;;;;;;;;;5066292;28;20510;-62
2021/03/17 06:07:56;;;;;;;0.00;0.00;;;;;;;;;;5066401;28;20028;-62
2021/03/17 06:10:22;;;;;;;0.00;0.00;;;;;;;;;;5070033;28;20025;-63
2021/03/17 06:12:50;;;;;;;0.00;0.00;;;;;;;;;;5065765;28;20421;-63
2021/03/17 06:15:21;;;;;;;0.00;0.00;;;;;;;;;;5069631;28;20020;-63
2021/03/17 06:17:48;;;;;;;0.00;0.00;;;;;;;;;;5070209;28;20108;-62
2021/03/17 06:20:15;;;;;;;0.00;0.00;;;;;;;;;;5068343;28;20024;-62
2021/03/17 06:22:41;;;;;;;0.00;0.00;;;;;;;;;;5068599;28;20041;-61
2021/03/17 06:25:09;;;;;;;0.00;0.00;;;;;;;;;;5081479;28;20489;-62
2021/03/17 06:27:37;;;;;;;0.00;0.00;;;;;;;;;;5065214;28;20529;-62
2021/03/17 06:30:06;;;;;;;0.00;0.00;;;;;;;;;;5071824;28;20037;-61
2021/03/17 06:32:33;;;;;;;0.00;0.00;;;;;;;;;;5067705;28;20035;-62
2021/03/17 06:35:00;;;;;;;0.00;0.00;;;;;;;;;;5067817;28;20029;-61
2021/03/17 06:37:39;;;;;;;0.00;0.00;;;;;;;;;;5069192;28;20081;-62
2021/03/17 06:40:20;;;;;;;0.00;0.00;;;;;;;;;;5062269;28;20034;-62
2021/03/17 06:42:46;;;;;;;0.00;0.00;;;;;;;;;;5058894;28;20029;-61
2021/03/17 06:45:13;;;;;;;0.00;0.00;;;;;;;;;;5070046;28;20032;-62
2021/03/17 06:47:39;;;;;;;0.00;0.00;;;;;;;;;;5068838;28;20067;-62
2021/03/17 06:50:12;;;;;;;0.00;0.00;;;;;;;;;;5067563;28;20036;-62
2021/03/17 06:52:40;;;;;;;0.00;0.00;;;;;;;;;;5067745;28;20025;-62
2021/03/17 06:55:06;;;;;;;0.00;0.00;;;;;;;;;;5066898;28;20055;-61
2021/03/17 06:57:32;;;;;;;0.10;0.10;;;;;;;;;;5065012;28;20132;-61
2021/03/17 07:00:17;;;;;;;0.10;0.10;;;;;;;;;;5066084;28;20045;-62
2021/03/17 07:02:50;;;;;;;1.17;0.30;;;;;;;;;;5047763;28;20460;-61
2021/03/17 07:05:16;;;;;;;0.30;0.30;;;;;;;;;;5050579;28;20061;-62
2021/03/17 07:07:52;;;;;;;0.05;0.05;;;;;;;;;;5050380;28;20021;-61
2021/03/17 07:10:31;;;;;;;0.00;0.00;;;;;;;;;;5049996;28;20045;-61
2021/03/17 07:12:58;;;;;;;0.00;0.00;;;;;;;;;;5050082;28;20033;-61
2021/03/17 07:15:25;;;;;;;0.00;0.00;;;;;;;;;;5047172;28;20021;-65
2021/03/17 07:18:14;;;;;;;0.00;0.00;;;;;;;;;;5050641;28;20025;-61
2021/03/17 07:20:49;;;;;;;0.00;0.00;;;;;;;;;;5050098;28;20052;-61
2021/03/17 07:23:27;;;;;;;0.00;0.00;;;;;;;;;;5051774;28;20155;-62
2021/03/17 07:26:12;;;;;;;0.00;0.00;;;;;;;;;;5051133;28;20055;-62
2021/03/17 07:28:47;;;;;;;0.00;0.00;;;;;;;;;;5049507;28;20029;-62
2021/03/17 07:31:21;;;;;;;0.00;0.00;;;;;;;;;;5049454;28;20341;-62
2021/03/17 07:33:47;;;;;;;0.05;0.05;;;;;;;;;;5049273;28;20025;-61
2021/03/17 07:36:30;;;;;;;0.00;0.00;;;;;;;;;;5052365;28;20041;-61
2021/03/17 07:38:58;;;;;;;0.00;0.00;;;;;;;;;;5051654;28;20164;-61
2021/03/17 07:41:24;;;;;;;0.00;0.00;;;;;;;;;;5050721;28;20025;-61
2021/03/17 07:43:54;;;;;;;0.00;0.00;;;;;;;;;;5050570;28;20025;-61
2021/03/17 07:46:23;;;;;;;0.00;0.00;;;;;;;;;;5048947;28;20033;-62
2021/03/17 07:48:50;;;;;;;0.00;0.00;;;;;;;;;;5049449;28;20583;-61
2021/03/17 07:51:17;;;;;;;0.00;0.00;;;;;;;;;;5051372;28;20021;-62
2021/03/17 07:53:45;;;;;;;0.00;0.00;;;;;;;;;;5051400;28;20029;-62
2021/03/17 07:56:11;;;;;;;0.00;0.00;;;;;;;;;;5049408;28;20052;-62
2021/03/17 07:58:38;;;;;;;0.00;0.00;;;;;;;;;;5048877;28;20037;-62
2021/03/17 08:01:04;;;;;;;0.00;0.00;;;;;;;;;;5050762;28;20068;-65
2021/03/17 08:03:31;;;;;;;0.00;0.00;;;;;;;;;;5050079;28;20582;-61
2021/03/17 08:05:57;;;;;;;0.00;0.00;;;;;;;;;;5052337;28;20517;-61
2021/03/17 08:08:24;;;;;;;0.00;0.00;;;;;;;;;;5048593;28;20158;-61
2021/03/17 08:10:51;;;;;;;0.15;0.08;;;;;;;;;;5048430;28;20024;-61
2021/03/17 08:13:17;;;;;;;1.17;0.65;;;;;;;;;;5047374;28;20033;-60
2021/03/17 08:15:44;;;;;;;4.72;0.93;;;;;;;;;;5047875;28;20024;-58
2021/03/17 08:18:29;;;;;;;1.50;0.70;;;;;;;;;;5051921;28;20029;-58
2021/03/17 08:20:55;;;;;;;0.15;0.15;;;;;;;;;;5050579;28;20121;-58
2021/03/17 08:23:40;;;;;;;19.27;3.70;;;;;;;;;;5049717;28;20397;-61
2021/03/17 08:26:07;;;;;;;3.28;1.17;;;;;;;;;;5048490;28;20027;-61
2021/03/17 08:28:45;;;;;;;14.23;1.65;;;;;;;;;;5047937;28;20041;-61
2021/03/17 08:31:12;;;;;;;10.52;0.80;;;;;;;;;;5048511;28;20082;-58
2021/03/17 08:33:39;;;;;;;38.47;3.78;;;;;;;;;;5033721;28;20068;-61
2021/03/17 08:36:07;;;;;;;2.55;2.40;;;;;;;;;;5050397;28;20514;-61
2021/03/17 08:38:51;;;;;;;1.02;0.85;;;;;;;;;;5048331;28;20049;-59
2021/03/17 08:41:36;;;;;;;6.43;3.45;;;;;;;;;;5047597;28;20131;-61
2021/03/17 08:44:17;;;;;;;0.70;0.70;;;;;;;;;;5047066;28;20410;-60
2021/03/17 08:46:44;;;;;;;7.22;2.60;;;;;;;;;;5047555;28;20025;-61
2021/03/17 08:49:11;;;;;;;1.38;0.47;;;;;;;;;;5047232;28;20061;-62
2021/03/17 08:51:49;;;;;;;0.17;0.17;;;;;;;;;;5048150;28;20036;-61
2021/03/17 08:54:30;;;;;;;5.97;1.20;;;;;;;;;;5047135;28;20441;-61
2021/03/17 08:57:00;;;;;;;5.63;1.65;;;;;;;;;;5050055;28;20029;-61
2021/03/17 08:59:41;;;;;;;1.60;0.95;;;;;;;;;;5046934;28;20044;-60
2021/03/17 09:02:17;;;;;;;0.08;0.08;;;;;;;;;;5047070;28;20044;-61
2021/03/17 09:04:47;;;;;;;0.85;0.85;;;;;;;;;;5049082;28;20025;-60
2021/03/17 09:07:13;;;;;;;0.00;0.00;;;;;;;;;;5047351;28;20506;-58
2021/03/17 09:09:45;;;;;;;0.00;0.00;;;;;;;;;;5047838;28;20391;-61
2021/03/17 09:12:12;;;;;;;2.63;0.60;;;;;;;;;;5047680;28;20038;-58
2021/03/17 09:14:39;;;;;;;4.05;0.65;;;;;;;;;;5046640;28;20051;-60
2021/03/17 09:17:07;;;;;;;0.60;0.60;;;;;;;;;;5047655;28;20100;-57
2021/03/17 09:19:52;;;;;;;0.00;0.00;;;;;;;;;;5047591;28;20624;-61
2021/03/17 09:22:35;;;;;;;0.20;0.20;;;;;;;;;;5047539;28;20045;-61
2021/03/17 09:25:11;;;;;;;0.95;0.90;;;;;;;;;;5047186;28;20036;-61
2021/03/17 09:28:04;;;;;;;3.42;2.15;;;;;;;;;;5048105;28;20030;-57
2021/03/17 09:30:36;;;;;;;0.52;0.52;;;;;;;;;;5045662;28;20090;-58
2021/03/17 09:33:22;;;;;;;5.25;2.17;;;;;;;;;;5031316;28;20025;-60
2021/03/17 09:35:51;;;;;;;0.85;0.85;;;;;;;;;;5048237;28;20095;-61
2021/03/17 09:38:17;;;;;;;2.47;1.65;;;;;;;;;;5044919;28;20043;-61
2021/03/17 09:40:56;;;;;;;7.78;1.30;;;;;;;;;;5044799;28;20079;-61
2021/03/17 09:43:23;;;;;;;20.48;1.17;;;;;;;;;;5044499;28;20029;-59
2021/03/17 09:45:49;;;;;;;0.50;0.50;;;;;;;;;;5044494;28;20029;-61
2021/03/17 09:48:17;;;;;;;2.55;1.65;;;;;;;;;;5047392;28;20501;-61
2021/03/17 09:50:43;;;;;;;0.10;0.10;;;;;;;;;;5047481;28;20025;-61
2021/03/17 09:53:13;;;;;;;3.63;2.05;;;;;;;;;;5046398;28;20025;-61
2021/03/17 09:55:40;;;;;;;0.28;0.25;;;;;;;;;;5044802;28;20032;-61
2021/03/17 09:58:06;;;;;;;0.10;0.10;;;;;;;;;;5044201;28;20029;-61
2021/03/17 10:00:34;;;;;;;0.35;0.35;;;;;;;;;;5045310;28;20033;-61
2021/03/17 10:03:01;;;;;;;4.47;1.85;;;;;;;;;;5047033;28;20127;-61
2021/03/17 10:05:27;;;;;;;0.70;0.25;;;;;;;;;;5044474;28;20402;-61
2021/03/17 10:07:53;;;;;;;0.00;0.00;;;;;;;;;;5046253;28;20505;-57
2021/03/17 10:10:20;;;;;;;11.52;2.95;;;;;;;;;;5046798;28;20049;-61
2021/03/17 10:12:47;;;;;;;0.00;0.00;;;;;;;;;;5046539;28;20017;-58
2021/03/17 10:15:14;;;;;;;1.85;1.20;;;;;;;;;;5049665;28;20035;-61
2021/03/17 10:17:41;;;;;;;0.10;0.10;;;;;;;;;;5047787;28;20028;-61
2021/03/17 10:20:18;;;;;;;0.47;0.47;;;;;;;;;;5048023;28;20560;-61
2021/03/17 10:22:45;;;;;;;8.27;0.73;;;;;;;;;;5045990;28;20029;-61
2021/03/17 10:25:12;;;;;;;2.15;1.85;;;;;;;;;;5046767;28;20418;-59
2021/03/17 10:27:42;;;;;;;9.10;0.63;;;;;;;;;;5043300;28;20041;-62
2021/03/17 10:30:12;;;;;;;7.78;3.80;;;;;;;;;;5046300;28;20395;-57
2021/03/17 10:32:39;;;;;;;0.10;0.10;;;;;;;;;;5045227;28;20437;-60
2021/03/17 10:35:06;;;;;;;0.10;0.10;;;;;;;;;;5046832;28;20047;-61
2021/03/17 10:37:33;;;;;;;0.77;0.43;;;;;;;;;;5052485;28;20033;-57
2021/03/17 10:40:06;;;;;;;0.00;0.00;;;;;;;;;;5051855;28;20428;-58
2021/03/17 10:42:33;;;;;;;0.10;0.10;;;;;;;;;;5051551;28;20021;-61
2021/03/17 10:45:00;;;;;;;0.00;0.00;;;;;;;;;;5053517;28;20029;-61
2021/03/17 10:47:26;;;;;;;0.08;0.08;;;;;;;;;;5051968;28;20017;-62
2021/03/17 10:49:53;;;;;;;0.30;0.30;;;;;;;;;;5051960;28;20385;-61
2021/03/17 10:52:19;;;;;;;0.95;0.75;;;;;;;;;;5052206;28;20518;-54
2021/03/17 10:54:46;;;;;;;8.77;1.00;;;;;;;;;;5051095;28;20158;-58
2021/03/17 10:57:22;;;;;;;0.10;0.10;;;;;;;;;;5052740;28;20040;-60
2021/03/17 10:59:49;;;;;;;0.10;0.10;;;;;;;;;;5052288;28;20063;-61
2021/03/17 11:02:22;;;;;;;0.55;0.55;;;;;;;;;;5051017;28;20029;-61
2021/03/17 11:05:07;;;;;;;0.35;0.35;;;;;;;;;;5051621;28;20036;-62
2021/03/17 11:07:49;;;;;;;0.10;0.10;;;;;;;;;;5048695;28;20045;-61
2021/03/17 11:10:28;;;;;;;2.00;0.95;;;;;;;;;;5047955;28;20463;-59
2021/03/17 11:12:55;;;;;;;1.00;1.00;;;;;;;;;;5048640;28;20028;-61
2021/03/17 11:15:22;;;;;;;6.05;2.03;;;;;;;;;;5051818;28;20021;-61
2021/03/17 11:17:51;;;;;;;27.08;2.92;;;;;;;;;;5052201;28;20025;-61
2021/03/17 11:20:18;;;;;;;2.92;2.38;;;;;;;;;;5051103;28;20486;-61
2021/03/17 11:22:44;;;;;;;0.10;0.10;;;;;;;;;;5050781;28;20017;-59
2021/03/17 11:25:11;;;;;;;0.10;0.10;;;;;;;;;;5049890;28;20707;-59
2021/03/17 11:27:39;;;;;;;0.10;0.10;;;;;;;;;;5050844;28;20075;-61
2021/03/17 11:30:06;;;;;;;0.00;0.00;;;;;;;;;;5052617;28;20035;-62
2021/03/17 11:32:32;;;;;;;0.70;0.57;;;;;;;;;;5050172;28;20367;-58
2021/03/17 11:34:58;;;;;;;1.15;1.15;;;;;;;;;;5050745;28;20119;-62
2021/03/17 11:37:28;;;;;;;2.67;2.42;;;;;;;;;;5050488;28;20036;-61
2021/03/17 11:39:54;;;;;;;0.47;0.47;;;;;;;;;;5050169;28;20111;-62
2021/03/17 11:42:20;;;;;;;0.73;0.65;;;;;;;;;;5051568;28;20508;-62
2021/03/17 11:44:46;;;;;;;4.65;1.77;;;;;;;;;;5051879;28;20025;-61
2021/03/17 11:47:13;;;;;;;0.52;0.52;;;;;;;;;;5050361;28;20025;-59
2021/03/17 11:49:39;;;;;;;0.75;0.15;;;;;;;;;;5050284;28;20055;-62
2021/03/17 11:52:06;;;;;;;6.75;1.30;;;;;;;;;;5050390;28;20060;-62
2021/03/17 11:54:32;;;;;;;1.77;0.47;;;;;;;;;;5050115;28;20521;-61
2021/03/17 11:56:59;;;;;;;3.20;0.25;;;;;;;;;;5050626;28;20021;-61
2021/03/17 11:59:25;;;;;;;12.63;0.43;;;;;;;;;;5048337;28;20037;-61
2021/03/17 12:01:51;;;;;;;0.08;0.08;;;;;;;;;;5042590;28;20865;-61
2021/03/17 12:04:17;;;;;;;0.00;0.00;;;;;;;;;;5046099;28;20025;-56
2021/03/17 12:06:44;;;;;;;4.47;0.40;;;;;;;;;;5047910;28;20044;-61
2021/03/17 12:09:10;;;;;;;5.50;3.95;;;;;;;;;;5051036;28;20060;-61
2021/03/17 12:11:36;;;;;;;5.65;1.55;;;;;;;;;;5048988;28;20029;-60
2021/03/17 12:14:03;;;;;;;5.28;0.40;;;;;;;;;;5048613;28;20494;-61
2021/03/17 12:16:29;;;;;;;3.92;1.25;;;;;;;;;;5047383;28;20790;-57
2021/03/17 12:18:56;;;;;;;2.88;1.77;;;;;;;;;;5049187;28;20024;-61
2021/03/17 12:21:22;;;;;;;0.05;0.05;;;;;;;;;;5048578;28;20060;-60
2021/03/17 12:23:48;;;;;;;0.10;0.10;;;;;;;;;;5047442;28;20498;-60
2021/03/17 12:26:15;;;;;;;0.20;0.17;;;;;;;;;;5047519;28;20384;-61
2021/03/17 12:28:41;;;;;;;1.63;0.90;;;;;;;;;;5047334;28;20043;-60
2021/03/17 12:31:07;;;;;;;17.65;3.40;;;;;;;;;;5048188;28;20029;-61
2021/03/17 12:33:34;;;;;;;8.95;1.52;;;;;;;;;;5046766;28;20035;-54
2021/03/17 12:36:01;;;;;;;0.10;0.10;;;;;;;;;;5046568;28;20017;-54
2021/03/17 12:38:27;;;;;;;4.45;0.68;;;;;;;;;;5047493;28;20047;-61
2021/03/17 12:40:53;;;;;;;0.75;0.60;;;;;;;;;;5046798;28;20482;-60
2021/03/17 12:43:20;;;;;;;0.10;0.10;;;;;;;;;;5047868;28;20112;-61
2021/03/17 12:45:46;;;;;;;1.00;0.63;;;;;;;;;;5046618;28;20051;-57
2021/03/17 12:48:13;;;;;;;0.77;0.50;;;;;;;;;;5050348;28;20029;-61
2021/03/17 12:50:40;;;;;;;0.38;0.38;;;;;;;;;;5044207;28;20057;-59
2021/03/17 12:53:06;;;;;;;0.55;0.55;;;;;;;;;;5045255;28;20017;-61
2021/03/17 12:55:33;;;;;;;0.43;0.43;;;;;;;;;;5048944;28;20099;-59
2021/03/17 12:57:59;;;;;;;0.08;0.08;;;;;;;;;;5046056;28;20076;-59
2021/03/17 13:00:27;;;;;;;3.30;1.00;;;;;;;;;;5046994;28;20052;-58
2021/03/17 13:02:53;;;;;;;10.63;3.28;;;;;;;;;;5046650;28;20031;-61
2021/03/17 13:05:19;;;;;;;0.38;0.38;;;;;;;;;;5046263;28;20033;-54
2021/03/17 13:07:46;;;;;;;15.63;2.72;;;;;;;;;;5048455;28;20582;-60
2021/03/17 13:10:14;;;;;;;5.10;1.70;;;;;;;;;;5046446;28;20041;-60
2021/03/17 13:12:41;;;;;;;3.10;1.45;;;;;;;;;;5040705;28;20107;-59
2021/03/17 13:15:08;;;;;;;0.17;0.17;;;;;;;;;;5047120;28;20040;-55
2021/03/17 13:17:34;;;;;;;7.30;1.67;;;;;;;;;;5046343;28;20483;-60
2021/03/17 13:20:00;;;;;;;20.73;2.65;;;;;;;;;;5047727;28;20438;-66
2021/03/17 13:22:27;;;;;;;4.57;1.20;;;;;;;;;;5048122;28;20108;-67
2021/03/17 13:24:53;;;;;;;4.53;1.85;;;;;;;;;;5047274;28;20029;-68
2021/03/17 13:27:19;;;;;;;11.00;3.15;;;;;;;;;;5048903;28;20033;-67
2021/03/17 13:29:45;;;;;;;12.35;4.05;;;;;;;;;;5049775;28;20035;-67
2021/03/17 13:32:11;;;;;;;0.43;0.43;;;;;;;;;;5048000;28;20112;-67
2021/03/17 13:34:37;;;;;;;5.60;3.33;;;;;;;;;;5046965;28;20106;-67
2021/03/17 13:37:06;;;;;;;1.35;1.13;;;;;;;;;;5047877;28;20124;-67
2021/03/17 13:39:32;;;;;;;5.07;2.58;;;;;;;;;;5046936;28;20029;-62
2021/03/17 13:41:58;;;;;;;0.95;0.70;;;;;;;;;;5048832;28;20086;-62
2021/03/17 13:44:24;;;;;;;0.45;0.38;;;;;;;;;;5047219;28;20025;-62
2021/03/17 13:46:50;;;;;;;0.45;0.45;;;;;;;;;;5048320;28;20026;-62
2021/03/17 13:49:16;;;;;;;12.57;2.10;;;;;;;;;;5046833;28;20029;-62
2021/03/17 13:51:43;;;;;;;2.63;2.53;;;;;;;;;;5046815;28;20060;-62
2021/03/17 13:54:09;;;;;;;7.22;0.70;;;;;;;;;;5049918;28;20112;-62
2021/03/17 13:56:35;;;;;;;8.95;2.75;;;;;;;;;;5047423;28;20029;-62
2021/03/17 13:59:01;;;;;;;1.30;1.23;;;;;;;;;;5047294;28;20087;-61
2021/03/17 14:01:27;;;;;;;2.35;1.70;;;;;;;;;;5045790;28;20463;-61
2021/03/17 14:03:55;;;;;;;14.15;1.98;;;;;;;;;;5045380;28;20039;-62
2021/03/17 14:06:21;;;;;;;1.25;0.47;;;;;;;;;;5048747;28;20490;-62
2021/03/17 14:08:47;;;;;;;0.10;0.10;;;;;;;;;;5048038;28;20048;-62
2021/03/17 14:11:14;;;;;;;10.43;1.95;;;;;;;;;;5049207;28;20033;-62
2021/03/17 14:13:40;;;;;;;6.25;1.48;;;;;;;;;;5050639;28;20452;-62
2021/03/17 14:16:07;;;;;;;6.93;0.90;;;;;;;;;;5052049;28;20025;-62
2021/03/17 14:18:33;;;;;;;14.02;2.88;;;;;;;;;;5051381;28;20021;-62
2021/03/17 14:20:59;;;;;;;3.58;1.80;;;;;;;;;;5052680;28;20032;-62
2021/03/17 14:23:25;;;;;;;3.25;1.70;;;;;;;;;;5051060;28;20102;-63
2021/03/17 14:25:51;;;;;;;0.10;0.10;;;;;;;;;;5050977;28;20021;-63
2021/03/17 14:28:18;;;;;;;5.07;2.72;;;;;;;;;;5050659;28;20362;-62
2021/03/17 14:30:44;;;;;;;1.58;1.15;;;;;;;;;;5050784;28;20047;-62
2021/03/17 14:33:10;;;;;;;40.60;15.60;;;;;;;;;;5053462;28;20414;-62
2021/03/17 14:35:36;;;;;;;3.30;2.80;;;;;;;;;;5051374;28;20028;-62
2021/03/17 14:38:03;;;;;;;7.57;2.17;;;;;;;;;;5050261;28;20040;-63
2021/03/17 14:40:31;;;;;;;9.25;8.30;;;;;;;;;;5050393;28;20043;-62
2021/03/17 14:42:57;;;;;;;5.93;4.05;;;;;;;;;;5050456;28;20021;-63
2021/03/17 14:45:24;;;;;;;13.50;6.05;;;;;;;;;;5050103;28;20398;-62
2021/03/17 14:47:50;;;;;;;0.10;0.10;;;;;;;;;;5050493;28;20033;-63
2021/03/17 14:50:16;;;;;;;2.83;1.20;;;;;;;;;;5051597;28;20465;-63
2021/03/17 14:52:43;;;;;;;4.57;1.45;;;;;;;;;;5050282;28;20021;-63
2021/03/17 14:55:09;;;;;;;2.13;0.85;;;;;;;;;;5051373;28;20033;-62
2021/03/17 14:57:35;;;;;;;0.30;0.30;;;;;;;;;;5051531;28;20367;-63
2021/03/17 15:00:03;;;;;;;0.55;0.50;;;;;;;;;;5053321;28;20098;-62
2021/03/17 15:02:29;;;;;;;0.47;0.47;;;;;;;;;;5049397;28;20037;-63
2021/03/17 15:04:55;;;;;;;6.55;1.42;;;;;;;;;;5051340;28;20021;-62
2021/03/17 15:07:22;;;;;;;1.20;1.10;;;;;;;;;;5049708;28;20090;-62
2021/03/17 15:09:48;;;;;;;0.50;0.50;;;;;;;;;;5049569;28;20038;-62
2021/03/17 15:12:14;;;;;;;2.30;2.20;;;;;;;;;;5051955;28;20021;-62
2021/03/17 15:14:41;;;;;;;0.10;0.10;;;;;;;;;;5050678;28;20037;-63
2021/03/17 15:17:08;;;;;;;6.70;1.13;;;;;;;;;;5049062;28;20416;-63
2021/03/17 15:19:34;;;;;;;0.47;0.35;;;;;;;;;;5050889;28;20037;-63
2021/03/17 15:22:01;;;;;;;6.82;0.73;;;;;;;;;;5042574;28;20135;-62
2021/03/17 15:24:27;;;;;;;0.10;0.10;;;;;;;;;;5051723;28;20116;-63
2021/03/17 15:26:54;;;;;;;0.10;0.10;;;;;;;;;;5051153;28;20028;-63
2021/03/17 15:29:20;;;;;;;0.95;0.68;;;;;;;;;;5049858;28;20524;-62
2021/03/17 15:31:46;;;;;;;11.10;2.72;;;;;;;;;;5047097;28;20545;-62
2021/03/17 15:34:13;;;;;;;0.10;0.10;;;;;;;;;;5049275;28;20029;-63
2021/03/17 15:36:39;;;;;;;11.10;4.15;;;;;;;;;;5050746;28;20040;-63
2021/03/17 15:39:07;;;;;;;0.38;0.38;;;;;;;;;;5052411;28;20111;-63
2021/03/17 15:41:33;;;;;;;0.00;0.00;;;;;;;;;;5050677;28;20017;-62
2021/03/17 15:44:00;;;;;;;14.00;2.50;;;;;;;;;;5050209;28;20127;-63
2021/03/17 15:46:26;;;;;;;0.45;0.40;;;;;;;;;;5048947;28;20390;-63
2021/03/17 15:48:53;;;;;;;3.03;2.83;;;;;;;;;;5048968;28;20030;-62
2021/03/17 15:51:19;;;;;;;0.10;0.10;;;;;;;;;;5049836;28;20453;-63
2021/03/17 15:53:46;;;;;;;3.22;0.77;;;;;;;;;;5049366;28;20021;-63
2021/03/17 15:56:12;;;;;;;0.10;0.10;;;;;;;;;;5050357;28;20039;-62
2021/03/17 15:58:38;;;;;;;0.10;0.10;;;;;;;;;;5049586;28;20091;-61
2021/03/17 16:01:04;;;;;;;0.10;0.10;;;;;;;;;;5046018;28;20039;-63
2021/03/17 16:03:30;;;;;;;6.03;1.42;;;;;;;;;;5047340;28;20054;-63
2021/03/17 16:05:57;;;;;;;0.05;0.05;;;;;;;;;;5047377;28;20422;-62
2021/03/17 16:08:26;;;;;;;0.10;0.10;;;;;;;;;;5046532;28;20545;-62
2021/03/17 16:10:53;;;;;;;0.13;0.10;;;;;;;;;;5042625;28;20025;-62
2021/03/17 16:13:19;;;;;;;0.10;0.10;;;;;;;;;;5036710;28;20032;-62
2021/03/17 16:15:45;;;;;;;0.10;0.10;;;;;;;;;;5041464;28;20021;-61
2021/03/17 16:18:12;;;;;;;0.15;0.15;;;;;;;;;;5046579;28;20108;-64
2021/03/17 16:20:38;;;;;;;0.22;0.20;;;;;;;;;;5043822;28;20033;-62
2021/03/17 16:23:04;;;;;;;0.10;0.10;;;;;;;;;;5042104;28;20494;-62
2021/03/17 16:25:33;;;;;;;0.10;0.10;;;;;;;;;;5043242;28;20108;-62
2021/03/17 16:27:59;;;;;;;0.00;0.00;;;;;;;;;;5043966;28;20087;-62
2021/03/17 16:30:26;;;;;;;0.10;0.10;;;;;;;;;;5049607;28;20041;-62
2021/03/17 16:32:52;;;;;;;0.32;0.32;;;;;;;;;;5043282;28;20017;-62
2021/03/17 16:35:19;;;;;;;0.10;0.10;;;;;;;;;;5042728;28;20020;-63
2021/03/17 16:37:45;;;;;;;0.10;0.10;;;;;;;;;;5046269;28;20075;-62
2021/03/17 16:40:12;;;;;;;0.00;0.00;;;;;;;;;;5044050;28;20029;-62
2021/03/17 16:42:38;;;;;;;0.08;0.08;;;;;;;;;;5047705;28;20036;-62
2021/03/17 16:45:04;;;;;;;1.55;0.20;;;;;;;;;;5045925;28;20029;-63
2021/03/17 16:47:31;;;;;;;0.28;0.28;;;;;;;;;;5047278;28;20025;-62
2021/03/17 16:49:57;;;;;;;0.10;0.10;;;;;;;;;;5048308;28;20056;-61
2021/03/17 16:52:23;;;;;;;0.00;0.00;;;;;;;;;;5048440;28;20021;-62
2021/03/17 16:54:49;;;;;;;0.10;0.10;;;;;;;;;;5049419;28;20032;-62
2021/03/17 16:57:15;;;;;;;2.38;0.60;;;;;;;;;;5049911;28;20037;-63
2021/03/17 16:59:41;;;;;;;5.95;1.55;;;;;;;;;;5049137;28;20091;-62
2021/03/17 17:02:07;;;;;;;0.20;0.20;;;;;;;;;;5037915;28;20021;-62
2021/03/17 17:04:33;;;;;;;0.08;0.08;;;;;;;;;;5043833;28;20629;-61
2021/03/17 17:06:59;;;;;;;0.00;0.00;;;;;;;;;;5046566;28;20489;-62
2021/03/17 17:09:26;;;;;;;0.08;0.08;;;;;;;;;;5048579;28;20033;-61
2021/03/17 17:11:52;;;;;;;0.10;0.10;;;;;;;;;;5049699;28;20030;-62
2021/03/17 17:14:18;;;;;;;0.20;0.20;;;;;;;;;;5047450;28;20119;-62
2021/03/17 17:16:44;;;;;;;0.00;0.00;;;;;;;;;;5039687;28;20032;-62
2021/03/17 17:19:10;;;;;;;1.92;1.25;;;;;;;;;;5033492;28;20025;-62
2021/03/17 17:21:36;;;;;;;2.00;1.35;;;;;;;;;;5050448;28;20029;-62
2021/03/17 17:24:02;;;;;;;0.40;0.20;;;;;;;;;;5051959;28;20048;-62
2021/03/17 17:26:28;;;;;;;2.05;1.88;;;;;;;;;;5048990;28;20021;-63
2021/03/17 17:28:55;;;;;;;0.98;0.60;;;;;;;;;;5048580;28;20036;-64
2021/03/17 17:31:21;;;;;;;1.77;0.47;;;;;;;;;;5049279;28;20025;-62
2021/03/17 17:33:47;;;;;;;0.45;0.45;;;;;;;;;;5047853;28;20052;-62
2021/03/17 17:36:14;;;;;;;3.85;1.05;;;;;;;;;;5047996;28;20021;-62
2021/03/17 17:38:40;;;;;;;2.47;0.88;;;;;;;;;;5051090;28;20028;-62
2021/03/17 17:41:07;;;;;;;0.52;0.52;;;;;;;;;;5049232;28;20040;-62
2021/03/17 17:43:33;;;;;;;1.35;1.35;;;;;;;;;;5046393;28;20106;-63
2021/03/17 17:45:59;;;;;;;2.55;2.20;;;;;;;;;;5049799;28;20094;-62
2021/03/17 17:48:25;;;;;;;1.75;0.20;;;;;;;;;;5047441;28;20033;-62
2021/03/17 17:50:52;;;;;;;0.10;0.10;;;;;;;;;;5046683;28;20028;-61
2021/03/17 17:53:18;;;;;;;0.00;0.00;;;;;;;;;;5045689;28;20032;-60
2021/03/17 17:55:44;;;;;;;0.85;0.85;;;;;;;;;;5042970;28;20037;-61
2021/03/17 17:58:10;;;;;;;0.10;0.10;;;;;;;;;;5046315;28;20032;-63
2021/03/17 18:00:36;;;;;;;0.10;0.10;;;;;;;;;;5044699;28;20519;-61
2021/03/17 18:03:03;;;;;;;1.17;1.17;;;;;;;;;;5047493;28;20040;-61
2021/03/17 18:05:30;;;;;;;0.10;0.10;;;;;;;;;;5046821;28;20042;-61
2021/03/17 18:07:56;;;;;;;0.10;0.10;;;;;;;;;;5046965;28;20029;-63
2021/03/17 18:10:24;;;;;;;0.10;0.10;;;;;;;;;;5044114;28;20041;-62
2021/03/17 18:12:50;;;;;;;0.10;0.10;;;;;;;;;;5045288;28;20636;-62
2021/03/17 18:15:17;;;;;;;0.10;0.10;;;;;;;;;;5046602;28;20074;-61
2021/03/17 18:17:43;;;;;;;0.00;0.00;;;;;;;;;;5044333;28;20025;-63
2021/03/17 18:20:11;;;;;;;0.10;0.10;;;;;;;;;;5046371;28;20055;-63
2021/03/17 18:22:37;;;;;;;0.20;0.20;;;;;;;;;;5046811;28;20622;-62
2021/03/17 18:25:05;;;;;;;0.10;0.10;;;;;;;;;;5047082;28;20414;-62
2021/03/17 18:27:31;;;;;;;0.10;0.10;;;;;;;;;;5048141;28;20402;-62
2021/03/17 18:29:57;;;;;;;0.00;0.00;;;;;;;;;;5048911;28;20576;-62
2021/03/17 18:32:24;;;;;;;0.20;0.20;;;;;;;;;;5047376;28;20120;-62
2021/03/17 18:34:50;;;;;;;0.10;0.10;;;;;;;;;;5047006;28;20036;-62
2021/03/17 18:37:16;;;;;;;0.10;0.10;;;;;;;;;;5046835;28;20079;-62
2021/03/17 18:39:43;;;;;;;0.00;0.00;;;;;;;;;;5046018;28;20505;-63
2021/03/17 18:42:09;;;;;;;0.00;0.00;;;;;;;;;;5046716;28;20097;-63
2021/03/17 18:44:35;;;;;;;0.30;0.30;;;;;;;;;;5047202;28;20032;-63
2021/03/17 18:47:01;;;;;;;0.10;0.10;;;;;;;;;;5046937;28;20043;-63
2021/03/17 18:49:28;;;;;;;0.00;0.00;;;;;;;;;;5046960;28;20037;-63
2021/03/17 18:51:54;;;;;;;0.00;0.00;;;;;;;;;;5045944;28;20021;-61
2021/03/17 18:54:20;;;;;;;0.08;0.08;;;;;;;;;;5044523;28;20488;-62
2021/03/17 18:56:46;;;;;;;0.98;0.95;;;;;;;;;;5050259;28;20398;-62
2021/03/17 18:59:12;;;;;;;0.10;0.10;;;;;;;;;;5048531;28;20504;-62
2021/03/17 19:01:39;;;;;;;0.10;0.10;;;;;;;;;;5046952;28;20043;-62
2021/03/17 19:04:05;;;;;;;0.00;0.00;;;;;;;;;;5049120;28;20017;-62
2021/03/17 19:06:31;;;;;;;0.10;0.10;;;;;;;;;;5048204;28;20021;-61
2021/03/17 19:08:58;;;;;;;0.10;0.10;;;;;;;;;;5049938;28;20055;-62
2021/03/17 19:11:24;;;;;;;0.17;0.17;;;;;;;;;;5047389;28;20024;-62
2021/03/17 19:13:51;;;;;;;0.00;0.00;;;;;;;;;;5054212;28;20129;-62
2021/03/17 19:16:18;;;;;;;6.50;2.05;;;;;;;;;;5051815;28;20057;-62
2021/03/17 19:18:44;;;;;;;1.25;1.15;;;;;;;;;;5048070;28;20067;-61
2021/03/17 19:21:14;;;;;;;0.00;0.00;;;;;;;;;;5047637;28;20098;-61
2021/03/17 19:23:42;;;;;;;0.10;0.10;;;;;;;;;;5049319;28;20025;-61
2021/03/17 19:26:08;;;;;;;0.00;0.00;;;;;;;;;;5047692;28;20083;-61
2021/03/17 19:28:44;;;;;;;0.00;0.00;;;;;;;;;;5046497;28;20029;-63
2021/03/17 19:31:20;;;;;;;2.30;2.17;;;;;;;;;;5046080;28;20492;-62
2021/03/17 19:33:52;;;;;;;0.00;0.00;;;;;;;;;;5045311;28;20537;-63
2021/03/17 19:36:24;;;;;;;0.10;0.10;;;;;;;;;;5038864;28;20124;-61
2021/03/17 19:38:51;;;;;;;0.10;0.10;;;;;;;;;;5044416;28;20032;-61
2021/03/17 19:41:19;;;;;;;0.98;0.22;;;;;;;;;;5045672;28;20040;-61
2021/03/17 19:43:49;;;;;;;0.00;0.00;;;;;;;;;;5046309;28;20028;-62
2021/03/17 19:46:17;;;;;;;0.10;0.10;;;;;;;;;;5046302;28;20024;-62
2021/03/17 19:48:45;;;;;;;2.65;2.55;;;;;;;;;;5045790;28;20033;-62
2021/03/17 19:51:13;;;;;;;13.40;3.72;;;;;;;;;;5049030;28;20071;-60
2021/03/17 19:53:59;;;;;;;0.00;0.00;;;;;;;;;;5049740;28;20136;-61
2021/03/17 19:56:44;;;;;;;1.20;0.20;;;;;;;;;;5048395;28;20698;-61
2021/03/17 19:59:30;;;;;;;1.90;1.20;;;;;;;;;;5040525;28;20072;-63
2021/03/17 20:02:20;;;;;;;0.50;0.50;;;;;;;;;;5021725;28;20041;-62
2021/03/17 20:04:52;;;;;;;0.00;0.00;;;;;;;;;;5004124;28;20046;-62
2021/03/17 20:07:19;;;;;;;0.00;0.00;;;;;;;;;;5026131;28;20667;-62
2021/03/17 20:09:45;;;;;;;0.40;0.40;;;;;;;;;;5007421;28;20580;-62
2021/03/17 20:12:14;;;;;;;0.00;0.00;;;;;;;;;;5011022;28;20026;-63
2021/03/17 20:14:50;;;;;;;0.00;0.00;;;;;;;;;;5023351;28;20395;-61
2021/03/17 20:17:16;;;;;;;3.13;1.55;;;;;;;;;;5024151;28;20550;-62
2021/03/17 20:19:43;;;;;;;0.80;0.80;;;;;;;;;;5007066;28;20080;-62
2021/03/17 20:22:11;;;;;;;0.00;0.00;;;;;;;;;;5007287;28;20036;-62
2021/03/17 20:24:41;;;;;;;0.22;0.22;;;;;;;;;;4994657;28;20116;-61
2021/03/17 20:27:08;;;;;;;0.00;0.00;;;;;;;;;;5027827;28;20478;-62
2021/03/17 20:29:34;;;;;;;0.00;0.00;;;;;;;;;;5007042;28;20538;-62
2021/03/17 20:32:06;;;;;;;0.03;0.03;;;;;;;;;;5007159;28;20042;-62
2021/03/17 20:34:33;;;;;;;0.20;0.20;;;;;;;;;;5006356;28;20040;-63
2021/03/17 20:37:00;;;;;;;0.10;0.10;;;;;;;;;;5008280;28;20052;-61
2021/03/17 20:39:36;;;;;;;0.40;0.40;;;;;;;;;;5027136;28;20041;-62
2021/03/17 20:42:21;;;;;;;0.00;0.00;;;;;;;;;;5046912;28;20272;-62
2021/03/17 20:44:49;;;;;;;1.08;1.08;;;;;;;;;;5045180;28;20485;-62
2021/03/17 20:47:16;;;;;;;0.10;0.10;;;;;;;;;;5045960;28;20095;-61
2021/03/17 20:49:43;;;;;;;1.95;1.85;;;;;;;;;;5045601;28;20123;-61